Terminal Aerodrome Forecast
Issued by NWS

Home | Current Version | Previous Version | Text Only | Print | Product List | Glossary Off
Versions: 1 2 3 4 5 6 7 8 9 10 11 12 13 14 15 16 17

000
FTUS43 KMPX 011723
TAFRWF
TAF
KRWF 011723Z 0118/0218 29011G17KT P6SM SCT250
     FM020300 27008KT P6SM FEW250
     FM020600 VRB05KT P6SM SKC
     FM021300 18008KT P6SM SCT030 BKN100=

USA.gov is the U.S. government's official web portal to all federal, state and local government web resources and services.